Strona główna
METAR-TAF:

METAR-TAF

Lotnisko :

Port lotniczy Sion

Sion, Szwajcaria

Szerokość geograficzna: 46-13N, Długość geograficzna: 007-20E, wysokość: 482 m

Aktualna obserwacja pogody

Raport powstał 41 minut temu, godzina 10:20 UTC
Wiatr 4 kt od zachodnio-południowy zachód, zmienny między południe i zachodnio-północny zachód
Temperatura 26°C
Wilgotność 37%
Ciśnienie 1014 hPa
Widzialność 10 km lub więcej
Mało chmury na wysokości 10000 ft

METAR: LSGS 181020Z 24004KT 180V300 9999 FEW100 26/10 Q1014

czas: 13:01 (11:01 UTC)

Prognoza

Raport powstał 2 godziny i 36 minut temu, godzina 08:25 UTC
Prognoza ważna od 18 godzina 09 UTC do 18 godzina 18 UTC
Wiatr 4 kt od wschód
Widzialność 10 km lub więcej
Mało chmury na wysokości 10000 ft
Stopniowe zmiany
od 18 godzina 09 UTC do 18 godzina 11 UTC
Wiatr 10 kt od zachodnio-południowy zachód

TAF: LSGS 180825Z 1809/1818 08004KT 9999 FEW100 BECMG 1809/1811 25010KT

Obserwacja i prognoza pogody dla ponad 4000 lotnisk (raport METAR i TAF).

Dostępne stacje oznaczono żółtymi i czerwonymi punktami na mapie.

Najedź kursorem aby zobaczyć nazwę stacji.

Kliknij aby zobaczyć obserwacje i prognozy pogody.

Aby zmienić mapę: kliknij na zielony przycisk z czarnym krzyżykiem, aby powiększyć; na zielony przycisk z myślnikiem, aby pomniejszyć; na zielone strzałki, aby przejść do map sąsiednich.


METAR-TAF: